Time;durP1;ratioP1;P1;durP2;ratioP2;P2;SDS_P1;SDS_P2;PMS_P1;PMS_P2;Temp;Humidity;BMP_temperature;BMP_pressure;BME280_temperature;BME280_humidity;BME280_pressure;Samples;Min_cycle;Max_cycle;Signal;HPM_P1;HPM_P2
2023/08/31 00:00:41;;;;;;;13.60;10.75;;;;;;;8.44;100.00;100598.25;10362278;28;20048;-77
2023/08/31 00:05:42;;;;;;;11.57;9.50;;;;;;;8.27;100.00;100601.69;10395743;28;20442;-78
2023/08/31 00:10:43;;;;;;;14.15;9.93;;;;;;;8.31;100.00;100607.16;10458797;28;20041;-77
2023/08/31 00:15:43;;;;;;;14.35;9.95;;;;;;;8.22;100.00;100602.34;10432421;28;20120;-77
2023/08/31 00:20:44;;;;;;;13.70;9.70;;;;;;;8.21;100.00;100600.53;10456271;28;20035;-77
2023/08/31 00:25:45;;;;;;;13.63;9.40;;;;;;;8.25;100.00;100588.59;10432392;28;20088;-77
2023/08/31 00:30:46;;;;;;;15.63;9.30;;;;;;;8.19;100.00;100590.88;10423652;28;20047;-77
2023/08/31 00:35:46;;;;;;;14.43;9.20;;;;;;;8.18;100.00;100597.78;10463390;28;20041;-77
2023/08/31 00:40:47;;;;;;;18.77;12.57;;;;;;;8.13;100.00;100593.16;10482655;28;20123;-77
2023/08/31 00:45:49;;;;;;;14.70;10.10;;;;;;;8.18;100.00;100594.28;10488119;28;20079;-77
2023/08/31 00:50:50;;;;;;;21.17;14.57;;;;;;;8.31;100.00;100598.44;10408133;28;20041;-77
2023/08/31 00:55:51;;;;;;;18.75;12.77;;;;;;;8.21;100.00;100595.34;10449660;28;20505;-77
2023/08/31 01:01:23;;;;;;;21.42;14.05;;;;;;;8.25;100.00;100588.59;10432537;28;20102;-77
2023/08/31 01:06:41;;;;;;;19.75;12.85;;;;;;;8.37;100.00;100588.31;10452827;28;20037;-77
2023/08/31 01:11:59;;;;;;;20.45;12.30;;;;;;;8.42;100.00;100578.13;10430063;28;20067;-77
2023/08/31 01:17:00;;;;;;;17.77;12.68;;;;;;;8.35;100.00;100585.66;10465458;28;20041;-78
2023/08/31 01:22:03;;;;;;;21.63;12.60;;;;;;;8.22;100.00;100581.47;10426014;28;20044;-78
2023/08/31 01:27:04;;;;;;;20.42;12.40;;;;;;;8.13;100.00;100583.59;10421731;28;20052;-78
2023/08/31 01:32:07;;;;;;;20.65;12.63;;;;;;;8.07;100.00;100588.50;10442495;28;20037;-77
2023/08/31 01:37:14;;;;;;;21.92;12.48;;;;;;;7.95;100.00;100583.53;10437450;28;20045;-78
2023/08/31 01:42:15;;;;;;;23.80;13.13;;;;;;;7.96;100.00;100584.41;10403946;28;20179;-77
2023/08/31 01:47:17;;;;;;;20.60;11.87;;;;;;;7.90;100.00;100587.59;10445488;28;20438;-77
2023/08/31 01:52:17;;;;;;;11.30;7.83;;;;;;;7.86;100.00;100598.69;10447653;28;20156;-78
2023/08/31 01:57:18;;;;;;;20.42;10.93;;;;;;;7.83;100.00;100601.13;10463142;28;20284;-78
2023/08/31 02:02:19;;;;;;;21.73;12.73;;;;;;;7.77;100.00;100606.88;10442449;28;20111;-77
2023/08/31 02:07:19;;;;;;;16.23;11.32;;;;;;;7.67;100.00;100599.34;10417591;28;20077;-78
2023/08/31 02:12:20;;;;;;;17.48;11.13;;;;;;;7.71;100.00;100594.41;10426390;28;20552;-77
2023/08/31 02:17:20;;;;;;;18.95;10.88;;;;;;;7.63;100.00;100599.19;10434924;28;20040;-77
2023/08/31 02:22:21;;;;;;;18.88;10.10;;;;;;;7.68;100.00;100602.06;10436221;28;20069;-77
2023/08/31 02:27:21;;;;;;;18.42;11.25;;;;;;;7.70;100.00;100607.34;10423551;28;20120;-78
2023/08/31 02:32:22;;;;;;;19.73;12.35;;;;;;;7.60;100.00;100614.66;10433417;28;20531;-78
2023/08/31 02:37:22;;;;;;;17.77;10.65;;;;;;;7.65;100.00;100614.91;10456023;28;20049;-76
2023/08/31 02:42:23;;;;;;;19.70;10.98;;;;;;;7.60;100.00;100606.84;10424242;28;20048;-77
2023/08/31 02:47:23;;;;;;;15.40;9.93;;;;;;;7.57;100.00;100603.19;10401997;28;20049;-77
2023/08/31 02:52:24;;;;;;;16.52;11.77;;;;;;;7.59;100.00;100606.75;10382333;28;20052;-76
2023/08/31 02:57:24;;;;;;;22.73;11.88;;;;;;;7.50;100.00;100614.94;10405135;28;20045;-77
2023/08/31 03:02:25;;;;;;;20.13;10.88;;;;;;;7.51;100.00;100608.94;10441895;28;20049;-77
2023/08/31 03:07:26;;;;;;;17.65;10.65;;;;;;;7.48;100.00;100611.38;10478698;28;20120;-76
2023/08/31 03:12:26;;;;;;;18.02;11.15;;;;;;;7.57;100.00;100609.28;10442910;28;20036;-77
2023/08/31 03:17:27;;;;;;;16.73;10.63;;;;;;;7.46;100.00;100613.91;10414692;28;20046;-77
2023/08/31 03:22:27;;;;;;;19.85;12.93;;;;;;;7.34;100.00;100614.09;10469404;28;20143;-78
2023/08/31 03:27:28;;;;;;;23.08;13.02;;;;;;;7.36;100.00;100616.78;10479229;28;20132;-83
2023/08/31 03:32:28;;;;;;;17.65;10.07;;;;;;;7.35;100.00;100615.00;10462749;28;20094;-81
2023/08/31 03:37:29;;;;;;;20.88;12.55;;;;;;;7.48;100.00;100613.97;10446116;28;20048;-78
2023/08/31 03:42:29;;;;;;;21.67;13.35;;;;;;;7.42;100.00;100611.00;10465545;28;20440;-79
2023/08/31 03:47:30;;;;;;;19.55;13.00;;;;;;;7.33;100.00;100614.91;10437911;28;20120;-77
2023/08/31 03:52:31;;;;;;;26.10;15.25;;;;;;;7.30;100.00;100616.44;10450545;28;20481;-78
2023/08/31 03:57:31;;;;;;;20.60;12.50;;;;;;;7.35;100.00;100612.41;10491590;28;20036;-78
2023/08/31 04:02:32;;;;;;;23.52;14.43;;;;;;;7.48;100.00;100612.28;10470504;28;20040;-81
2023/08/31 04:07:34;;;;;;;22.00;14.80;;;;;;;7.44;100.00;100610.31;10490638;28;20037;-78
2023/08/31 04:12:34;;;;;;;28.80;15.85;;;;;;;7.44;100.00;100625.03;10451676;28;20052;-79
2023/08/31 04:17:35;;;;;;;27.30;16.50;;;;;;;7.53;100.00;100619.44;10417389;28;20037;-79
2023/08/31 04:22:35;;;;;;;23.40;16.75;;;;;;;7.55;100.00;100623.91;10443248;28;20064;-78
2023/08/31 04:27:39;;;;;;;27.83;15.93;;;;;;;7.55;100.00;100630.84;10472899;28;20489;-79
2023/08/31 04:32:39;;;;;;;27.30;17.65;;;;;;;7.59;100.00;100627.59;10468598;28;20063;-79
2023/08/31 04:37:40;;;;;;;35.42;17.35;;;;;;;7.56;100.00;100632.63;10482182;28;20047;-78
2023/08/31 04:42:40;;;;;;;25.98;16.95;;;;;;;7.62;100.00;100636.47;10446521;28;20116;-77
2023/08/31 04:47:41;;;;;;;36.22;18.55;;;;;;;7.72;100.00;100637.91;10427129;28;20128;-77
2023/08/31 04:52:41;;;;;;;27.45;19.10;;;;;;;7.80;100.00;100648.72;10403698;28;20117;-78
2023/08/31 04:57:42;;;;;;;32.35;21.92;;;;;;;7.88;100.00;100655.25;10423484;28;20037;-79
2023/08/31 05:02:43;;;;;;;48.50;24.42;;;;;;;7.96;100.00;100655.69;10443368;28;20047;-79
2023/08/31 05:07:43;;;;;;;61.20;39.67;;;;;;;8.08;100.00;100651.16;10405799;28;20052;-79
2023/08/31 05:12:44;;;;;;;41.95;27.40;;;;;;;8.07;100.00;100665.00;10403237;28;20028;-79
2023/08/31 05:17:44;;;;;;;33.03;20.30;;;;;;;8.10;100.00;100671.19;10464191;28;20053;-79
2023/08/31 05:22:46;;;;;;;30.10;19.45;;;;;;;8.04;100.00;100683.06;10446765;28;20550;-79
2023/08/31 05:27:47;;;;;;;32.42;20.70;;;;;;;8.15;100.00;100694.06;10445426;28;20473;-79
2023/08/31 05:32:47;;;;;;;30.77;19.65;;;;;;;8.28;100.00;100692.13;10464211;28;20036;-79
2023/08/31 05:37:48;;;;;;;36.50;19.80;;;;;;;8.27;100.00;100695.56;10425524;28;20144;-79
2023/08/31 05:42:48;;;;;;;29.17;19.92;;;;;;;8.29;100.00;100689.63;10443692;28;20123;-79
2023/08/31 05:47:49;;;;;;;26.65;16.33;;;;;;;8.41;100.00;100694.59;10484797;28;20128;-79
2023/08/31 05:52:49;;;;;;;32.13;17.77;;;;;;;8.59;100.00;100693.81;10427365;28;20059;-80
2023/08/31 05:57:50;;;;;;;27.73;17.33;;;;;;;8.73;100.00;100702.38;10460891;28;20044;-80
2023/08/31 06:02:53;;;;;;;26.42;16.13;;;;;;;8.95;100.00;100704.38;10428467;28;20037;-80
2023/08/31 06:07:54;;;;;;;41.58;20.65;;;;;;;9.58;100.00;100705.75;10483783;28;20059;-80
2023/08/31 06:12:54;;;;;;;22.40;14.05;;;;;;;11.07;100.00;100702.09;10483710;28;20067;-81
2023/08/31 06:17:55;;;;;;;17.25;12.30;;;;;;;11.95;100.00;100697.81;10426850;28;20396;-80
2023/08/31 06:22:55;;;;;;;11.95;6.65;;;;;;;12.55;100.00;100707.09;10388416;28;20045;-81
2023/08/31 06:27:56;;;;;;;7.78;4.97;;;;;;;13.62;100.00;100699.41;10399383;28;20505;-80
2023/08/31 06:32:56;;;;;;;7.38;3.72;;;;;;;14.49;100.00;100663.47;10418412;28;20037;-80
2023/08/31 06:37:57;;;;;;;7.93;3.60;;;;;;;15.46;100.00;100637.88;10403380;28;20054;-81
2023/08/31 06:42:58;;;;;;;7.20;3.38;;;;;;;15.81;100.00;100626.38;10400528;28;20052;-80
2023/08/31 06:47:59;;;;;;;7.90;3.13;;;;;;;16.61;100.00;100679.09;10463603;28;20043;-82
2023/08/31 06:53:00;;;;;;;5.38;3.15;;;;;;;17.19;100.00;100697.84;10466046;28;20121;-80
2023/08/31 06:58:02;;;;;;;5.60;3.13;;;;;;;17.69;100.00;100704.84;10443529;28;20090;-78
2023/08/31 07:03:05;;;;;;;7.45;2.95;;;;;;;17.85;100.00;100713.03;10400307;28;20083;-77
2023/08/31 07:08:05;;;;;;;7.63;3.45;;;;;;;18.19;100.00;100725.03;10416711;28;20042;-78
2023/08/31 07:13:06;;;;;;;6.00;3.37;;;;;;;19.06;100.00;100746.44;10424345;28;20507;-78
2023/08/31 07:18:07;;;;;;;5.30;2.97;;;;;;;19.34;100.00;100752.91;10475680;28;20939;-78
2023/08/31 07:23:08;;;;;;;5.53;2.63;;;;;;;19.23;100.00;100773.13;10448924;28;20083;-77
2023/08/31 07:28:08;;;;;;;7.40;2.70;;;;;;;19.68;100.00;100760.31;10449425;28;20048;-79
2023/08/31 07:33:09;;;;;;;7.43;3.00;;;;;;;19.64;100.00;100763.81;10450085;28;20037;-79
2023/08/31 07:38:09;;;;;;;8.33;3.67;;;;;;;20.20;100.00;100772.22;10450444;28;20066;-78
2023/08/31 07:43:10;;;;;;;14.13;4.80;;;;;;;20.12;100.00;100785.44;10417373;28;20042;-78
2023/08/31 07:48:10;;;;;;;5.27;2.63;;;;;;;20.64;100.00;100783.97;10440345;28;20033;-78
2023/08/31 07:53:11;;;;;;;6.20;3.80;;;;;;;20.43;100.00;100782.09;10407773;28;20045;-78
2023/08/31 07:58:12;;;;;;;8.48;3.38;;;;;;;20.06;100.00;100810.22;10439267;28;20053;-79
2023/08/31 08:03:12;;;;;;;7.60;3.70;;;;;;;20.03;100.00;100780.06;10408680;28;20046;-78
2023/08/31 08:08:13;;;;;;;4.73;2.77;;;;;;;20.93;100.00;100801.84;10425527;28;20066;-78
2023/08/31 08:13:13;;;;;;;7.67;3.47;;;;;;;20.77;100.00;100814.19;10451902;28;20047;-78
2023/08/31 08:18:14;;;;;;;9.97;3.60;;;;;;;20.15;100.00;100816.47;10445306;28;20161;-77
2023/08/31 08:23:14;;;;;;;7.23;3.33;;;;;;;19.89;100.00;100812.72;10445267;28;20049;-77
2023/08/31 08:28:15;;;;;;;6.83;3.90;;;;;;;20.65;100.00;100828.28;10448098;28;20098;-77
2023/08/31 08:33:15;;;;;;;6.80;3.63;;;;;;;21.51;100.00;100826.84;10454852;28;20147;-78
2023/08/31 08:38:16;;;;;;;8.50;3.80;;;;;;;21.06;100.00;100822.28;10445887;28;20037;-77
2023/08/31 08:43:17;;;;;;;7.63;3.80;;;;;;;22.29;100.00;100838.44;10415755;28;20129;-77
2023/08/31 08:48:18;;;;;;;8.38;5.13;;;;;;;23.26;100.00;100847.06;10420801;28;20129;-78
2023/08/31 08:53:19;;;;;;;9.87;3.70;;;;;;;23.46;100.00;100853.19;10427599;28;20033;-79
2023/08/31 08:58:19;;;;;;;4.97;2.57;;;;;;;23.30;100.00;100865.75;10444796;28;20120;-79
2023/08/31 09:03:20;;;;;;;8.67;3.10;;;;;;;22.25;100.00;100856.22;10447432;28;20575;-78
2023/08/31 09:08:27;;;;;;;5.63;3.30;;;;;;;22.52;100.00;100858.88;10445919;28;20147;-82
2023/08/31 09:13:31;;;;;;;6.25;3.75;;;;;;;22.73;100.00;100863.28;10428608;28;20060;-80
2023/08/31 09:18:35;;;;;;;5.85;3.75;;;;;;;22.66;100.00;100864.19;10445959;28;20469;-79
2023/08/31 09:23:35;;;;;;;7.20;3.75;;;;;;;21.50;100.00;100857.91;10392405;28;20137;-79
2023/08/31 09:28:36;;;;;;;6.07;3.83;;;;;;;22.05;100.00;100860.66;10420653;28;20493;-80
2023/08/31 09:33:37;;;;;;;7.73;3.60;;;;;;;22.29;100.00;100868.66;10423555;28;20091;-79
2023/08/31 09:38:44;;;;;;;11.40;4.97;;;;;;;21.08;100.00;100863.09;10411731;28;20037;-78
2023/08/31 09:43:44;;;;;;;8.90;3.30;;;;;;;22.37;100.00;100860.66;10418622;28;20436;-78
2023/08/31 09:48:45;;;;;;;9.87;3.33;;;;;;;24.31;100.00;100869.53;10404682;28;20124;-78
2023/08/31 09:53:45;;;;;;;5.77;3.47;;;;;;;23.68;100.00;100873.56;10402270;28;20367;-78
2023/08/31 09:58:46;;;;;;;13.63;3.63;;;;;;;24.05;100.00;100865.28;10434358;28;20042;-79
2023/08/31 10:03:46;;;;;;;5.73;3.60;;;;;;;21.93;100.00;100873.09;10435962;28;20131;-79
2023/08/31 10:08:47;;;;;;;5.83;2.73;;;;;;;21.63;100.00;100860.63;10417825;28;20087;-79
2023/08/31 10:13:47;;;;;;;5.13;2.67;;;;;;;22.12;100.00;100868.66;10401681;28;20091;-79
2023/08/31 10:18:48;;;;;;;15.37;8.23;;;;;;;20.23;100.00;100866.09;10401644;28;20503;-78
2023/08/31 10:23:49;;;;;;;9.33;3.43;;;;;;;19.32;100.00;100846.66;10425428;28;20041;-79
2023/08/31 10:28:50;;;;;;;7.28;2.50;;;;;;;18.57;100.00;100847.41;10483266;28;20040;-78
2023/08/31 10:34:00;;;;;;;6.03;3.47;;;;;;;21.73;100.00;100862.44;10445604;28;20393;-80
2023/08/31 10:39:02;;;;;;;9.18;3.58;;;;;;;24.19;100.00;100871.41;10441258;28;20049;-80
2023/08/31 10:44:02;;;;;;;6.05;2.40;;;;;;;21.18;100.00;100880.00;10421627;28;20394;-79
2023/08/31 10:49:09;;;;;;;3.57;2.07;;;;;;;19.15;100.00;100862.34;10403802;28;20041;-80
2023/08/31 10:54:19;;;;;;;7.20;2.92;;;;;;;18.87;100.00;100838.09;10455584;28;20060;-79
2023/08/31 10:59:21;;;;;;;11.27;3.75;;;;;;;21.33;100.00;100867.63;10400521;28;20518;-80
2023/08/31 11:04:23;;;;;;;12.38;5.28;;;;;;;19.28;100.00;100871.38;10400491;28;20450;-80
2023/08/31 11:09:24;;;;;;;13.48;5.53;;;;;;;17.88;100.00;100861.31;10398899;28;20040;-79
2023/08/31 11:14:24;;;;;;;12.95;4.10;;;;;;;17.30;100.00;100832.94;10401914;28;20116;-79
2023/08/31 11:19:25;;;;;;;6.05;2.60;;;;;;;17.02;100.00;100824.44;10407235;28;20042;-79
2023/08/31 11:24:26;;;;;;;6.45;2.80;;;;;;;17.28;100.00;100832.88;10399545;28;20429;-80
2023/08/31 11:29:27;;;;;;;7.97;4.18;;;;;;;19.25;100.00;100820.91;10400760;28;20065;-79
2023/08/31 11:34:28;;;;;;;6.47;2.58;;;;;;;23.58;100.00;100862.94;10482759;28;20049;-81
2023/08/31 11:39:29;;;;;;;7.90;3.17;;;;;;;22.90;100.00;100862.31;10481047;28;20029;-81
2023/08/31 11:44:29;;;;;;;8.73;2.80;;;;;;;24.19;100.00;100866.06;10442481;28;20524;-81
2023/08/31 11:49:30;;;;;;;6.33;2.23;;;;;;;26.30;100.00;100849.03;10410084;28;20040;-80
2023/08/31 11:54:30;;;;;;;7.43;2.80;;;;;;;25.74;100.00;100852.63;10441705;28;20474;-80
2023/08/31 11:59:31;;;;;;;6.13;2.80;;;;;;;24.38;100.00;100857.88;10445057;28;20094;-80
2023/08/31 12:04:31;;;;;;;7.27;3.13;;;;;;;24.12;100.00;100850.97;10450709;28;20453;-81
2023/08/31 12:09:32;;;;;;;7.53;2.73;;;;;;;24.75;100.00;100859.28;10447945;28;20042;-82
2023/08/31 12:14:33;;;;;;;4.53;2.57;;;;;;;25.26;100.00;100847.94;10443215;28;20594;-81
2023/08/31 12:19:36;;;;;;;3.37;2.17;;;;;;;26.23;98.49;100858.09;10429850;28;20481;-80
2023/08/31 12:24:43;;;;;;;4.35;2.75;;;;;;;25.36;100.00;100854.03;10433783;28;20041;-79
2023/08/31 12:29:43;;;;;;;4.80;2.40;;;;;;;23.88;100.00;100852.00;10415296;28;20058;-80
2023/08/31 12:34:44;;;;;;;12.50;4.27;;;;;;;25.08;100.00;100838.34;10432235;28;20029;-80
2023/08/31 12:39:45;;;;;;;8.77;3.20;;;;;;;26.01;91.73;100828.94;10439099;28;20119;-80
2023/08/31 12:44:46;;;;;;;4.82;2.53;;;;;;;26.27;90.35;100827.63;10444135;28;20075;-81
2023/08/31 12:49:46;;;;;;;7.57;4.27;;;;;;;26.46;83.09;100817.44;10447374;28;20036;-79
2023/08/31 12:54:47;;;;;;;8.70;3.17;;;;;;;26.34;81.41;100828.41;10447116;28;20075;-80
2023/08/31 12:59:47;;;;;;;3.27;1.37;;;;;;;26.13;84.37;100826.97;10446361;28;20120;-80
2023/08/31 13:04:49;;;;;;;8.70;2.20;;;;;;;26.18;79.30;100827.78;10429997;28;20143;-80
2023/08/31 13:09:49;;;;;;;7.82;2.33;;;;;;;25.64;63.66;100832.22;10428629;28;20044;-80
2023/08/31 13:14:50;;;;;;;6.23;2.73;;;;;;;25.67;71.30;100823.28;10444745;28;20493;-80
2023/08/31 13:19:50;;;;;;;4.20;2.07;;;;;;;25.45;79.05;100829.84;10404151;28;20087;-79
2023/08/31 13:24:51;;;;;;;4.10;2.13;;;;;;;25.09;84.16;100831.22;10404506;28;20385;-81
2023/08/31 13:29:52;;;;;;;7.80;1.93;;;;;;;23.44;88.30;100832.75;10436601;28;20052;-79
2023/08/31 13:34:55;;;;;;;3.40;2.40;;;;;;;22.02;100.00;100837.59;10405209;28;20034;-79
2023/08/31 13:39:56;;;;;;;3.85;1.85;;;;;;;23.17;100.00;100846.19;10402895;28;20040;-82
2023/08/31 13:44:56;;;;;;;6.23;2.07;;;;;;;24.79;86.94;100839.59;10424197;28;20382;-79
2023/08/31 13:49:57;;;;;;;5.20;2.00;;;;;;;24.13;80.77;100855.41;10442251;28;20132;-80
2023/08/31 13:54:57;;;;;;;3.50;1.97;;;;;;;21.52;100.00;100856.16;10414721;28;20060;-77
2023/08/31 13:59:58;;;;;;;3.83;1.83;;;;;;;21.01;100.00;100847.13;10436392;28;20033;-77
2023/08/31 14:04:59;;;;;;;7.80;2.93;;;;;;;21.42;100.00;100841.91;10422166;28;20037;-78
2023/08/31 14:09:59;;;;;;;8.37;2.03;;;;;;;20.56;100.00;100849.50;10389970;28;20068;-79
2023/08/31 14:15:04;;;;;;;7.30;2.40;;;;;;;19.67;100.00;100852.31;10390463;28;20558;-80
2023/08/31 14:20:08;;;;;;;7.63;2.78;;;;;;;19.17;100.00;100850.91;10453418;28;20484;-77
2023/08/31 14:25:10;;;;;;;6.70;2.60;;;;;;;18.57;100.00;100847.41;10444023;28;20033;-78
2023/08/31 14:30:11;;;;;;;15.02;4.05;;;;;;;18.26;100.00;100857.56;10418893;28;20049;-78
2023/08/31 14:35:12;;;;;;;5.32;3.50;;;;;;;18.07;100.00;100865.19;10484249;28;20442;-80
2023/08/31 14:40:13;;;;;;;6.63;4.63;;;;;;;17.60;100.00;100845.81;10425043;28;20133;-78
2023/08/31 14:45:14;;;;;;;9.18;3.72;;;;;;;17.30;100.00;100835.56;10410435;28;20045;-79
2023/08/31 14:50:14;;;;;;;7.32;5.03;;;;;;;17.65;100.00;100824.75;10443276;28;20050;-77
2023/08/31 14:55:15;;;;;;;22.17;12.00;;;;;;;17.37;100.00;100832.19;10432527;28;20064;-77
2023/08/31 15:00:16;;;;;;;6.55;4.53;;;;;;;17.34;100.00;100844.44;10401339;28;20050;-77
2023/08/31 15:05:16;;;;;;;14.70;5.90;;;;;;;16.88;100.00;100834.69;10403560;28;20132;-79
2023/08/31 15:10:18;;;;;;;11.98;4.60;;;;;;;16.50;100.00;100816.25;10435718;28;20049;-78
2023/08/31 15:15:18;;;;;;;8.35;6.40;;;;;;;16.77;100.00;100804.50;10440071;28;20052;-78
2023/08/31 15:20:19;;;;;;;7.78;3.75;;;;;;;17.03;100.00;100813.00;10401045;28;20060;-78
2023/08/31 15:25:19;;;;;;;16.67;8.57;;;;;;;17.11;100.00;100821.06;10441655;28;20045;-77
2023/08/31 15:30:20;;;;;;;16.70;8.70;;;;;;;17.00;100.00;100837.63;10441560;28;20112;-77
2023/08/31 15:35:21;;;;;;;8.55;4.28;;;;;;;16.79;100.00;100837.13;10432638;28;20037;-77
2023/08/31 15:40:21;;;;;;;8.65;4.43;;;;;;;16.84;100.00;100827.53;10420415;28;20223;-78
2023/08/31 15:45:22;;;;;;;6.28;3.90;;;;;;;16.72;100.00;100850.22;10390981;28;20068;-77
2023/08/31 15:50:22;;;;;;;6.40;2.95;;;;;;;16.74;100.00;100864.34;10407319;28;20511;-77
2023/08/31 15:55:23;;;;;;;5.85;2.17;;;;;;;16.77;100.00;100883.78;10407751;28;20030;-78
2023/08/31 16:00:24;;;;;;;7.88;2.83;;;;;;;16.92;100.00;100880.59;10408590;28;20052;-80
2023/08/31 16:05:25;;;;;;;6.13;2.13;;;;;;;17.06;100.00;100878.25;10397382;28;20041;-76
2023/08/31 16:10:25;;;;;;;6.80;2.80;;;;;;;17.12;100.00;100863.44;10426986;28;20051;-78
2023/08/31 16:15:26;;;;;;;4.72;2.28;;;;;;;17.03;100.00;100861.47;10448208;28;20065;-78
2023/08/31 16:20:27;;;;;;;6.43;2.22;;;;;;;17.05;100.00;100865.91;10451442;28;20037;-78
2023/08/31 16:25:27;;;;;;;6.82;2.33;;;;;;;17.22;100.00;100874.19;10487771;28;20052;-78
2023/08/31 16:30:28;;;;;;;5.45;1.83;;;;;;;17.15;100.00;100876.72;10484333;28;20079;-78
2023/08/31 16:35:28;;;;;;;5.70;2.40;;;;;;;17.16;100.00;100861.72;10443971;28;20120;-78
2023/08/31 16:40:29;;;;;;;6.90;2.63;;;;;;;17.23;100.00;100861.00;10433277;28;20047;-77
2023/08/31 16:45:30;;;;;;;5.60;1.77;;;;;;;17.21;100.00;100862.72;10431222;28;20052;-80
2023/08/31 16:50:35;;;;;;;10.48;2.60;;;;;;;17.09;100.00;100868.66;10451466;28;20090;-77
2023/08/31 16:55:39;;;;;;;6.45;2.33;;;;;;;16.90;100.00;100883.19;10428001;28;20032;-77
2023/08/31 17:00:40;;;;;;;6.60;4.07;;;;;;;16.75;100.00;100894.31;10406442;28;20037;-77
2023/08/31 17:05:40;;;;;;;8.95;2.97;;;;;;;16.69;100.00;100889.78;10404862;28;20116;-77
2023/08/31 17:10:41;;;;;;;6.78;2.88;;;;;;;16.59;100.00;100887.78;10424708;28;20051;-78
2023/08/31 17:15:41;;;;;;;8.63;2.90;;;;;;;16.27;100.00;100880.88;10424295;28;20033;-78
2023/08/31 17:20:42;;;;;;;4.47;2.50;;;;;;;15.86;100.00;100871.03;10442501;28;20460;-78
2023/08/31 17:25:43;;;;;;;10.60;2.83;;;;;;;15.45;100.00;100868.16;10445532;28;20040;-78
2023/08/31 17:30:43;;;;;;;8.38;3.45;;;;;;;15.11;100.00;100848.75;10430085;28;20094;-77
2023/08/31 17:35:44;;;;;;;8.27;3.30;;;;;;;14.87;100.00;100839.28;10440076;28;20487;-78
2023/08/31 17:40:48;;;;;;;6.97;4.60;;;;;;;14.65;100.00;100830.72;10445916;28;20068;-78
2023/08/31 17:45:49;;;;;;;8.40;2.95;;;;;;;14.47;100.00;100825.78;10427942;28;20124;-79
2023/08/31 17:50:49;;;;;;;9.45;4.40;;;;;;;14.39;100.00;100804.47;10445571;28;20090;-77
2023/08/31 17:55:50;;;;;;;6.72;4.07;;;;;;;14.26;100.00;100798.78;10442068;28;20041;-77
2023/08/31 18:00:50;;;;;;;8.30;3.72;;;;;;;14.01;100.00;100806.78;10444758;28;20032;-77
2023/08/31 18:05:51;;;;;;;8.88;3.45;;;;;;;13.73;100.00;100819.00;10437165;28;20045;-78
2023/08/31 18:10:55;;;;;;;9.35;3.75;;;;;;;13.44;100.00;100833.78;10435628;28;20120;-77
2023/08/31 18:15:56;;;;;;;8.68;4.85;;;;;;;13.23;100.00;100834.78;10404241;28;20033;-77
2023/08/31 18:20:58;;;;;;;9.68;4.15;;;;;;;13.01;100.00;100849.75;10442758;28;20037;-78
2023/08/31 18:25:58;;;;;;;7.90;4.33;;;;;;;12.86;100.00;100862.31;10425783;28;20033;-78
2023/08/31 18:31:02;;;;;;;6.97;4.65;;;;;;;12.69;100.00;100867.81;10425332;28;20036;-78
2023/08/31 18:36:03;;;;;;;6.53;3.70;;;;;;;12.46;100.00;100875.66;10443177;28;20051;-77
2023/08/31 18:41:04;;;;;;;9.13;4.20;;;;;;;12.34;100.00;100877.78;10442045;28;20033;-77
2023/08/31 18:46:05;;;;;;;10.40;4.35;;;;;;;12.18;100.00;100878.88;10441036;28;20045;-77
2023/08/31 18:51:05;;;;;;;8.05;4.68;;;;;;;12.10;100.00;100890.78;10437430;28;20041;-77
2023/08/31 18:56:06;;;;;;;11.65;5.05;;;;;;;11.95;100.00;100891.91;10399339;28;20033;-77
2023/08/31 19:01:06;;;;;;;7.32;5.03;;;;;;;11.84;100.00;100899.31;10402505;28;20061;-78
2023/08/31 19:06:07;;;;;;;15.73;5.53;;;;;;;11.78;100.00;100895.53;10401323;28;20064;-77
2023/08/31 19:11:08;;;;;;;13.18;5.25;;;;;;;11.59;100.00;100906.13;10417214;28;20557;-77
2023/08/31 19:16:10;;;;;;;10.87;4.70;;;;;;;11.52;100.00;100905.78;10400531;28;20030;-78
2023/08/31 19:21:10;;;;;;;11.50;4.87;;;;;;;11.43;100.00;100916.75;10415143;28;20033;-77
2023/08/31 19:26:14;;;;;;;9.73;4.82;;;;;;;11.41;100.00;100923.66;10417629;28;20046;-80
2023/08/31 19:31:14;;;;;;;13.85;5.25;;;;;;;11.37;100.00;100929.56;10399689;28;20454;-77
2023/08/31 19:36:15;;;;;;;10.32;5.38;;;;;;;11.25;100.00;100919.41;10432758;28;20025;-78
2023/08/31 19:41:16;;;;;;;10.30;5.30;;;;;;;11.24;100.00;100925.50;10401422;28;20073;-78
2023/08/31 19:46:17;;;;;;;14.02;4.60;;;;;;;11.21;100.00;100936.75;10401523;28;20033;-78
2023/08/31 19:51:17;;;;;;;12.77;5.15;;;;;;;11.14;100.00;100943.41;10401429;28;20146;-78
2023/08/31 19:56:18;;;;;;;10.93;5.15;;;;;;;11.02;100.00;100940.22;10432730;28;20042;-77
2023/08/31 20:01:18;;;;;;;14.27;6.93;;;;;;;11.05;100.00;100940.34;10416790;28;20045;-78
2023/08/31 20:06:19;;;;;;;8.30;4.40;;;;;;;11.08;100.00;100937.00;10401112;28;20116;-78
2023/08/31 20:11:21;;;;;;;13.57;5.00;;;;;;;11.04;100.00;100945.53;10399634;28;20064;-78
2023/08/31 20:16:22;;;;;;;;;;;;;;;10.93;100.00;100935.44;10399762;28;20393;-77
2023/08/31 20:21:22;;;;;;;10.40;4.03;;;;;;;10.86;100.00;100939.47;10480037;28;19921;-77
2023/08/31 20:26:23;;;;;;;15.77;6.55;;;;;;;10.84;100.00;100940.25;10444640;28;20064;-78
2023/08/31 20:31:23;;;;;;;11.27;5.28;;;;;;;10.81;100.00;100935.75;10446714;28;20052;-77
2023/08/31 20:36:24;;;;;;;12.48;4.70;;;;;;;10.76;100.00;100947.72;10449004;28;20060;-77
2023/08/31 20:41:28;;;;;;;13.85;5.10;;;;;;;10.68;100.00;100952.59;10446958;28;20036;-76
2023/08/31 20:46:29;;;;;;;15.80;7.72;;;;;;;10.67;100.00;100939.44;10445253;28;20124;-77
2023/08/31 20:51:29;;;;;;;13.70;5.93;;;;;;;10.57;100.00;100936.34;10435102;28;20094;-78
2023/08/31 20:56:31;;;;;;;9.43;5.18;;;;;;;10.52;100.00;100926.50;10441766;28;20037;-79
2023/08/31 21:01:31;;;;;;;10.23;6.03;;;;;;;10.48;100.00;100927.19;10425928;28;20358;-79
2023/08/31 21:06:33;;;;;;;15.70;4.97;;;;;;;10.45;100.00;100922.69;10439485;28;20040;-80
2023/08/31 21:11:34;;;;;;;14.40;5.50;;;;;;;10.37;100.00;100932.75;10451633;28;20067;-78
2023/08/31 21:16:34;;;;;;;8.40;4.90;;;;;;;10.32;100.00;100925.47;10428602;28;20476;-78
2023/08/31 21:21:36;;;;;;;15.15;5.30;;;;;;;10.25;100.00;100937.38;10392059;28;20054;-80
2023/08/31 21:26:38;;;;;;;11.07;5.78;;;;;;;10.32;100.00;100929.00;10453741;28;20029;-77
2023/08/31 21:31:38;;;;;;;9.23;5.22;;;;;;;10.40;100.00;100939.88;10437926;28;20124;-77
2023/08/31 21:36:39;;;;;;;11.07;5.05;;;;;;;10.44;100.00;100936.59;10442301;28;20041;-77
2023/08/31 21:41:39;;;;;;;11.68;5.22;;;;;;;10.46;100.00;100936.66;10445591;28;20106;-77
2023/08/31 21:46:40;;;;;;;13.52;6.35;;;;;;;10.41;100.00;100939.97;10471534;28;20053;-77
2023/08/31 21:51:41;;;;;;;18.33;6.22;;;;;;;10.34;100.00;100940.44;10461900;28;20041;-76
2023/08/31 21:56:41;;;;;;;10.60;6.65;;;;;;;10.26;100.00;100944.41;10499498;28;20048;-78
2023/08/31 22:01:42;;;;;;;13.30;5.45;;;;;;;10.24;100.00;100953.88;10485306;28;20040;-77
2023/08/31 22:06:43;;;;;;;11.15;6.13;;;;;;;10.26;100.00;100952.25;10504880;28;20071;-77
2023/08/31 22:11:43;;;;;;;13.82;5.47;;;;;;;10.29;100.00;100955.91;10430098;28;20124;-80
2023/08/31 22:16:44;;;;;;;20.25;6.80;;;;;;;10.31;100.00;100953.38;10403734;28;20136;-77
2023/08/31 22:21:44;;;;;;;15.90;7.15;;;;;;;10.46;100.00;100957.59;10402084;28;20034;-77
2023/08/31 22:26:45;;;;;;;14.13;6.28;;;;;;;10.53;100.00;100964.94;10417384;28;20042;-77
2023/08/31 22:31:45;;;;;;;13.68;7.25;;;;;;;10.56;100.00;100955.50;10403617;28;20040;-77
2023/08/31 22:36:46;;;;;;;16.08;6.35;;;;;;;10.56;100.00;100960.72;10434544;28;20041;-77
2023/08/31 22:41:46;;;;;;;14.18;6.00;;;;;;;10.55;100.00;100963.28;10426572;28;20065;-77